sensor_id;sensor_type;location;lat;lon;timestamp;temperature;humidity
22645;DHT22;11489;50.834;6.752;2022-08-21T00:00:37;14.10;78.20
22645;DHT22;11489;50.834;6.752;2022-08-21T00:03:06;14.00;78.20
22645;DHT22;11489;50.834;6.752;2022-08-21T00:05:35;14.00;78.30
22645;DHT22;11489;50.834;6.752;2022-08-21T00:08:01;14.00;78.50
22645;DHT22;11489;50.834;6.752;2022-08-21T00:10:27;14.00;78.50
22645;DHT22;11489;50.834;6.752;2022-08-21T00:12:53;13.90;78.60
22645;DHT22;11489;50.834;6.752;2022-08-21T00:15:22;14.00;78.70
22645;DHT22;11489;50.834;6.752;2022-08-21T00:17:48;13.90;78.80
22645;DHT22;11489;50.834;6.752;2022-08-21T00:20:17;13.90;78.90
22645;DHT22;11489;50.834;6.752;2022-08-21T00:22:43;13.90;79.00
22645;DHT22;11489;50.834;6.752;2022-08-21T00:25:10;13.80;78.90
22645;DHT22;11489;50.834;6.752;2022-08-21T00:27:36;13.80;79.00
22645;DHT22;11489;50.834;6.752;2022-08-21T00:30:04;13.80;79.10
22645;DHT22;11489;50.834;6.752;2022-08-21T00:32:30;13.80;79.20
22645;DHT22;11489;50.834;6.752;2022-08-21T00:34:56;13.80;79.20
22645;DHT22;11489;50.834;6.752;2022-08-21T00:37:22;13.70;79.20
22645;DHT22;11489;50.834;6.752;2022-08-21T00:39:48;13.70;79.20
22645;DHT22;11489;50.834;6.752;2022-08-21T00:42:14;13.70;79.30
22645;DHT22;11489;50.834;6.752;2022-08-21T00:44:42;13.60;79.40
22645;DHT22;11489;50.834;6.752;2022-08-21T00:47:08;13.60;79.60
22645;DHT22;11489;50.834;6.752;2022-08-21T00:49:34;13.60;79.60
22645;DHT22;11489;50.834;6.752;2022-08-21T00:52:01;13.50;79.70
22645;DHT22;11489;50.834;6.752;2022-08-21T00:54:28;13.50;79.90
22645;DHT22;11489;50.834;6.752;2022-08-21T00:57:14;13.50;80.10
22645;DHT22;11489;50.834;6.752;2022-08-21T00:59:43;13.50;80.70
22645;DHT22;11489;50.834;6.752;2022-08-21T01:02:11;13.40;80.20
22645;DHT22;11489;50.834;6.752;2022-08-21T01:04:37;13.40;80.30
22645;DHT22;11489;50.834;6.752;2022-08-21T01:07:03;13.30;80.30
22645;DHT22;11489;50.834;6.752;2022-08-21T01:09:29;13.30;80.40
22645;DHT22;11489;50.834;6.752;2022-08-21T01:11:55;13.30;81.20
22645;DHT22;11489;50.834;6.752;2022-08-21T01:14:21;13.30;80.50
22645;DHT22;11489;50.834;6.752;2022-08-21T01:16:50;13.20;80.50
22645;DHT22;11489;50.834;6.752;2022-08-21T01:19:18;13.20;80.70
22645;DHT22;11489;50.834;6.752;2022-08-21T01:21:45;13.20;80.70
22645;DHT22;11489;50.834;6.752;2022-08-21T01:24:11;13.10;80.70
22645;DHT22;11489;50.834;6.752;2022-08-21T01:26:37;13.10;80.80
22645;DHT22;11489;50.834;6.752;2022-08-21T01:32:13;13.10;81.50
22645;DHT22;11489;50.834;6.752;2022-08-21T01:34:42;13.10;81.10
22645;DHT22;11489;50.834;6.752;2022-08-21T01:37:09;13.00;81.70
22645;DHT22;11489;50.834;6.752;2022-08-21T01:39:35;13.00;80.90
22645;DHT22;11489;50.834;6.752;2022-08-21T01:42:02;13.00;81.00
22645;DHT22;11489;50.834;6.752;2022-08-21T01:44:28;13.00;81.10
22645;DHT22;11489;50.834;6.752;2022-08-21T01:46:54;12.90;81.10
22645;DHT22;11489;50.834;6.752;2022-08-21T01:49:21;12.90;81.20
22645;DHT22;11489;50.834;6.752;2022-08-21T01:51:46;12.90;81.20
22645;DHT22;11489;50.834;6.752;2022-08-21T01:54:12;12.80;81.20
22645;DHT22;11489;50.834;6.752;2022-08-21T01:56:41;12.80;81.30
22645;DHT22;11489;50.834;6.752;2022-08-21T01:59:08;12.80;81.50
22645;DHT22;11489;50.834;6.752;2022-08-21T02:01:34;12.80;81.50
22645;DHT22;11489;50.834;6.752;2022-08-21T02:04:00;12.70;81.50
22645;DHT22;11489;50.834;6.752;2022-08-21T02:06:26;12.70;81.60
22645;DHT22;11489;50.834;6.752;2022-08-21T02:08:52;12.70;81.70
22645;DHT22;11489;50.834;6.752;2022-08-21T02:11:19;12.70;81.80
22645;DHT22;11489;50.834;6.752;2022-08-21T02:13:44;12.60;81.80
22645;DHT22;11489;50.834;6.752;2022-08-21T02:16:10;12.60;81.80
22645;DHT22;11489;50.834;6.752;2022-08-21T02:18:36;12.60;81.90
22645;DHT22;11489;50.834;6.752;2022-08-21T02:21:04;12.60;82.00
22645;DHT22;11489;50.834;6.752;2022-08-21T02:23:30;12.60;82.00
22645;DHT22;11489;50.834;6.752;2022-08-21T02:25:58;12.60;82.10
22645;DHT22;11489;50.834;6.752;2022-08-21T02:28:24;12.50;82.20
22645;DHT22;11489;50.834;6.752;2022-08-21T02:30:50;12.50;82.30
22645;DHT22;11489;50.834;6.752;2022-08-21T02:33:17;12.50;82.40
22645;DHT22;11489;50.834;6.752;2022-08-21T02:35:45;12.50;82.50
22645;DHT22;11489;50.834;6.752;2022-08-21T02:38:14;12.40;82.60
22645;DHT22;11489;50.834;6.752;2022-08-21T02:40:42;12.40;82.60
22645;DHT22;11489;50.834;6.752;2022-08-21T02:43:08;12.40;82.60
22645;DHT22;11489;50.834;6.752;2022-08-21T02:45:35;12.40;82.60
22645;DHT22;11489;50.834;6.752;2022-08-21T02:48:04;12.40;82.60
22645;DHT22;11489;50.834;6.752;2022-08-21T02:50:36;12.40;82.70
22645;DHT22;11489;50.834;6.752;2022-08-21T02:53:04;12.40;82.80
22645;DHT22;11489;50.834;6.752;2022-08-21T02:55:32;12.30;82.60
22645;DHT22;11489;50.834;6.752;2022-08-21T02:57:59;12.30;82.70
22645;DHT22;11489;50.834;6.752;2022-08-21T03:00:27;12.30;82.70
22645;DHT22;11489;50.834;6.752;2022-08-21T03:02:53;12.30;82.80
22645;DHT22;11489;50.834;6.752;2022-08-21T03:05:21;12.20;82.90
22645;DHT22;11489;50.834;6.752;2022-08-21T03:07:47;12.20;82.90
22645;DHT22;11489;50.834;6.752;2022-08-21T03:10:14;12.20;82.90
22645;DHT22;11489;50.834;6.752;2022-08-21T03:12:40;12.20;83.00
22645;DHT22;11489;50.834;6.752;2022-08-21T03:15:08;12.10;82.90
22645;DHT22;11489;50.834;6.752;2022-08-21T03:17:35;12.10;83.10
22645;DHT22;11489;50.834;6.752;2022-08-21T03:20:00;12.10;83.10
22645;DHT22;11489;50.834;6.752;2022-08-21T03:22:27;12.10;83.20
22645;DHT22;11489;50.834;6.752;2022-08-21T03:24:53;12.00;83.20
22645;DHT22;11489;50.834;6.752;2022-08-21T03:27:19;12.00;83.30
22645;DHT22;11489;50.834;6.752;2022-08-21T03:29:45;12.00;83.40
22645;DHT22;11489;50.834;6.752;2022-08-21T03:32:11;12.00;83.40
22645;DHT22;11489;50.834;6.752;2022-08-21T03:34:38;12.00;83.50
22645;DHT22;11489;50.834;6.752;2022-08-21T03:37:05;12.00;83.50
22645;DHT22;11489;50.834;6.752;2022-08-21T03:39:31;11.90;83.60
22645;DHT22;11489;50.834;6.752;2022-08-21T03:41:57;11.90;83.60
22645;DHT22;11489;50.834;6.752;2022-08-21T03:44:23;11.90;83.70
22645;DHT22;11489;50.834;6.752;2022-08-21T03:46:48;11.90;83.70
22645;DHT22;11489;50.834;6.752;2022-08-21T03:49:14;11.80;83.70
22645;DHT22;11489;50.834;6.752;2022-08-21T03:51:40;11.80;83.70
22645;DHT22;11489;50.834;6.752;2022-08-21T03:54:06;11.80;83.80
22645;DHT22;11489;50.834;6.752;2022-08-21T03:56:32;11.80;83.90
22645;DHT22;11489;50.834;6.752;2022-08-21T03:58:57;11.80;84.00
22645;DHT22;11489;50.834;6.752;2022-08-21T04:01:23;11.80;84.00
22645;DHT22;11489;50.834;6.752;2022-08-21T04:03:49;11.80;84.00
22645;DHT22;11489;50.834;6.752;2022-08-21T04:06:14;11.70;84.00
22645;DHT22;11489;50.834;6.752;2022-08-21T04:08:40;11.70;84.10
22645;DHT22;11489;50.834;6.752;2022-08-21T04:11:09;11.70;84.10
22645;DHT22;11489;50.834;6.752;2022-08-21T04:13:36;11.70;84.20
22645;DHT22;11489;50.834;6.752;2022-08-21T04:16:02;11.70;84.30
22645;DHT22;11489;50.834;6.752;2022-08-21T04:18:28;11.70;84.20
22645;DHT22;11489;50.834;6.752;2022-08-21T04:20:54;11.70;84.30
22645;DHT22;11489;50.834;6.752;2022-08-21T04:23:21;11.60;84.40
22645;DHT22;11489;50.834;6.752;2022-08-21T04:25:47;11.70;84.50
22645;DHT22;11489;50.834;6.752;2022-08-21T04:28:13;11.60;84.60
22645;DHT22;11489;50.834;6.752;2022-08-21T04:30:39;11.60;84.70
22645;DHT22;11489;50.834;6.752;2022-08-21T04:33:04;11.70;84.90
22645;DHT22;11489;50.834;6.752;2022-08-21T04:35:30;11.60;84.90
22645;DHT22;11489;50.834;6.752;2022-08-21T04:37:57;11.60;84.80
22645;DHT22;11489;50.834;6.752;2022-08-21T04:40:25;11.70;84.90
22645;DHT22;11489;50.834;6.752;2022-08-21T04:42:57;11.60;85.50
22645;DHT22;11489;50.834;6.752;2022-08-21T04:45:32;11.60;84.90
22645;DHT22;11489;50.834;6.752;2022-08-21T04:48:01;11.70;84.90
22645;DHT22;11489;50.834;6.752;2022-08-21T04:50:39;11.60;84.90
22645;DHT22;11489;50.834;6.752;2022-08-21T04:53:11;11.60;85.20
22645;DHT22;11489;50.834;6.752;2022-08-21T04:55:37;11.60;85.10
22645;DHT22;11489;50.834;6.752;2022-08-21T04:58:05;11.60;85.10
22645;DHT22;11489;50.834;6.752;2022-08-21T05:00:33;11.70;85.30
22645;DHT22;11489;50.834;6.752;2022-08-21T05:03:00;11.70;85.40
22645;DHT22;11489;50.834;6.752;2022-08-21T05:05:28;11.70;85.40
22645;DHT22;11489;50.834;6.752;2022-08-21T05:07:55;11.70;85.50
22645;DHT22;11489;50.834;6.752;2022-08-21T05:10:22;11.80;85.70
22645;DHT22;11489;50.834;6.752;2022-08-21T05:12:48;11.80;85.70
22645;DHT22;11489;50.834;6.752;2022-08-21T05:15:15;11.80;85.80
22645;DHT22;11489;50.834;6.752;2022-08-21T05:17:42;11.90;86.00
22645;DHT22;11489;50.834;6.752;2022-08-21T05:20:09;11.90;86.00
22645;DHT22;11489;50.834;6.752;2022-08-21T05:22:35;12.00;86.10
22645;DHT22;11489;50.834;6.752;2022-08-21T05:25:01;12.00;86.20
22645;DHT22;11489;50.834;6.752;2022-08-21T05:27:27;12.10;86.30
22645;DHT22;11489;50.834;6.752;2022-08-21T05:29:56;12.10;86.30
22645;DHT22;11489;50.834;6.752;2022-08-21T05:32:22;12.20;86.40
22645;DHT22;11489;50.834;6.752;2022-08-21T05:34:48;12.30;86.50
22645;DHT22;11489;50.834;6.752;2022-08-21T05:37:13;12.40;86.50
22645;DHT22;11489;50.834;6.752;2022-08-21T05:39:39;12.50;86.60
22645;DHT22;11489;50.834;6.752;2022-08-21T05:42:05;12.50;86.50
22645;DHT22;11489;50.834;6.752;2022-08-21T05:44:31;12.60;86.70
22645;DHT22;11489;50.834;6.752;2022-08-21T05:47:03;12.70;86.70
22645;DHT22;11489;50.834;6.752;2022-08-21T05:49:29;12.80;86.80
22645;DHT22;11489;50.834;6.752;2022-08-21T05:51:54;12.90;86.80
22645;DHT22;11489;50.834;6.752;2022-08-21T05:54:20;13.00;86.80
22645;DHT22;11489;50.834;6.752;2022-08-21T05:56:46;13.10;86.70
22645;DHT22;11489;50.834;6.752;2022-08-21T05:59:11;13.20;86.70
22645;DHT22;11489;50.834;6.752;2022-08-21T06:01:39;13.40;86.70
22645;DHT22;11489;50.834;6.752;2022-08-21T06:04:05;13.50;86.60
22645;DHT22;11489;50.834;6.752;2022-08-21T06:06:31;13.60;86.40
22645;DHT22;11489;50.834;6.752;2022-08-21T06:08:56;13.70;86.40
22645;DHT22;11489;50.834;6.752;2022-08-21T06:11:22;13.80;86.20
22645;DHT22;11489;50.834;6.752;2022-08-21T06:13:47;14.00;86.20
22645;DHT22;11489;50.834;6.752;2022-08-21T06:16:15;14.10;86.20
22645;DHT22;11489;50.834;6.752;2022-08-21T06:18:42;14.20;86.10
22645;DHT22;11489;50.834;6.752;2022-08-21T06:21:08;14.40;86.00
22645;DHT22;11489;50.834;6.752;2022-08-21T06:23:34;14.50;86.00
22645;DHT22;11489;50.834;6.752;2022-08-21T06:26:05;14.60;85.90
22645;DHT22;11489;50.834;6.752;2022-08-21T06:28:31;14.80;85.70
22645;DHT22;11489;50.834;6.752;2022-08-21T06:30:57;14.90;85.60
22645;DHT22;11489;50.834;6.752;2022-08-21T06:33:23;15.10;85.60
22645;DHT22;11489;50.834;6.752;2022-08-21T06:35:49;15.20;85.40
22645;DHT22;11489;50.834;6.752;2022-08-21T06:38:15;15.40;85.90
22645;DHT22;11489;50.834;6.752;2022-08-21T06:40:41;15.60;85.00
22645;DHT22;11489;50.834;6.752;2022-08-21T06:43:10;15.70;84.80
22645;DHT22;11489;50.834;6.752;2022-08-21T06:45:36;15.80;84.50
22645;DHT22;11489;50.834;6.752;2022-08-21T06:48:02;16.00;84.40
22645;DHT22;11489;50.834;6.752;2022-08-21T06:50:29;16.10;84.20
22645;DHT22;11489;50.834;6.752;2022-08-21T06:53:06;16.20;84.10
22645;DHT22;11489;50.834;6.752;2022-08-21T06:55:33;16.40;83.10
22645;DHT22;11489;50.834;6.752;2022-08-21T06:57:59;16.60;83.60
22645;DHT22;11489;50.834;6.752;2022-08-21T07:00:25;16.70;83.40
22645;DHT22;11489;50.834;6.752;2022-08-21T07:02:51;16.80;83.20
22645;DHT22;11489;50.834;6.752;2022-08-21T07:05:17;17.00;83.10
22645;DHT22;11489;50.834;6.752;2022-08-21T07:07:43;17.10;82.80
22645;DHT22;11489;50.834;6.752;2022-08-21T07:10:09;17.30;82.60
22645;DHT22;11489;50.834;6.752;2022-08-21T07:12:34;17.40;82.20
22645;DHT22;11489;50.834;6.752;2022-08-21T07:15:00;17.60;82.00
22645;DHT22;11489;50.834;6.752;2022-08-21T07:17:26;17.70;81.70
22645;DHT22;11489;50.834;6.752;2022-08-21T07:19:52;17.90;81.60
22645;DHT22;11489;50.834;6.752;2022-08-21T07:22:20;18.00;81.30
22645;DHT22;11489;50.834;6.752;2022-08-21T07:24:46;18.20;80.90
22645;DHT22;11489;50.834;6.752;2022-08-21T07:27:12;18.30;80.70
22645;DHT22;11489;50.834;6.752;2022-08-21T07:29:38;18.50;80.60
22645;DHT22;11489;50.834;6.752;2022-08-21T07:32:04;18.60;80.20
22645;DHT22;11489;50.834;6.752;2022-08-21T07:34:30;18.80;80.10
22645;DHT22;11489;50.834;6.752;2022-08-21T07:36:57;18.90;79.70
22645;DHT22;11489;50.834;6.752;2022-08-21T07:39:22;19.10;79.30
22645;DHT22;11489;50.834;6.752;2022-08-21T07:41:48;19.20;79.10
22645;DHT22;11489;50.834;6.752;2022-08-21T07:44:14;19.40;78.80
22645;DHT22;11489;50.834;6.752;2022-08-21T07:46:39;19.50;78.50
22645;DHT22;11489;50.834;6.752;2022-08-21T07:49:05;19.70;78.10
22645;DHT22;11489;50.834;6.752;2022-08-21T07:51:32;19.80;77.70
22645;DHT22;11489;50.834;6.752;2022-08-21T07:53:59;19.90;77.10
22645;DHT22;11489;50.834;6.752;2022-08-21T07:56:26;20.00;76.80
22645;DHT22;11489;50.834;6.752;2022-08-21T07:58:52;20.10;76.40
22645;DHT22;11489;50.834;6.752;2022-08-21T08:01:18;20.30;76.20
22645;DHT22;11489;50.834;6.752;2022-08-21T08:03:44;20.40;76.10
22645;DHT22;11489;50.834;6.752;2022-08-21T08:06:11;20.50;75.70
22645;DHT22;11489;50.834;6.752;2022-08-21T08:08:38;20.60;75.30
22645;DHT22;11489;50.834;6.752;2022-08-21T08:11:06;20.70;75.20
22645;DHT22;11489;50.834;6.752;2022-08-21T08:13:31;20.80;74.80
22645;DHT22;11489;50.834;6.752;2022-08-21T08:15:57;21.00;74.30
22645;DHT22;11489;50.834;6.752;2022-08-21T08:18:23;21.00;74.10
22645;DHT22;11489;50.834;6.752;2022-08-21T08:20:49;21.10;74.20
22645;DHT22;11489;50.834;6.752;2022-08-21T08:23:15;21.20;74.00
22645;DHT22;11489;50.834;6.752;2022-08-21T08:25:41;21.30;73.90
22645;DHT22;11489;50.834;6.752;2022-08-21T08:28:07;21.40;73.00
22645;DHT22;11489;50.834;6.752;2022-08-21T08:30:33;21.50;72.80
22645;DHT22;11489;50.834;6.752;2022-08-21T08:32:59;21.50;72.70
22645;DHT22;11489;50.834;6.752;2022-08-21T08:35:25;21.60;72.80
22645;DHT22;11489;50.834;6.752;2022-08-21T08:37:52;21.70;72.20
22645;DHT22;11489;50.834;6.752;2022-08-21T08:43:19;21.80;69.50
22645;DHT22;11489;50.834;6.752;2022-08-21T08:45:50;21.90;72.30
22645;DHT22;11489;50.834;6.752;2022-08-21T08:48:51;22.10;71.60
22645;DHT22;11489;50.834;6.752;2022-08-21T08:51:52;22.40;69.20
22645;DHT22;11489;50.834;6.752;2022-08-21T08:54:33;22.70;70.10
22645;DHT22;11489;50.834;6.752;2022-08-21T08:57:02;23.10;70.60
22645;DHT22;11489;50.834;6.752;2022-08-21T08:59:43;23.40;72.20
22645;DHT22;11489;50.834;6.752;2022-08-21T09:02:14;23.80;69.00
22645;DHT22;11489;50.834;6.752;2022-08-21T09:04:40;24.10;70.80
22645;DHT22;11489;50.834;6.752;2022-08-21T09:07:40;24.50;71.80
22645;DHT22;11489;50.834;6.752;2022-08-21T09:10:18;24.80;66.70
22645;DHT22;11489;50.834;6.752;2022-08-21T09:13:55;25.00;68.00
22645;DHT22;11489;50.834;6.752;2022-08-21T09:16:26;25.30;65.00
22645;DHT22;11489;50.834;6.752;2022-08-21T09:25:08;26.10;66.40
22645;DHT22;11489;50.834;6.752;2022-08-21T09:27:36;26.40;63.60
22645;DHT22;11489;50.834;6.752;2022-08-21T09:30:05;26.50;64.20
22645;DHT22;11489;50.834;6.752;2022-08-21T09:32:34;26.60;62.50
22645;DHT22;11489;50.834;6.752;2022-08-21T09:35:13;26.70;62.70
22645;DHT22;11489;50.834;6.752;2022-08-21T09:37:59;26.80;60.00
22645;DHT22;11489;50.834;6.752;2022-08-21T09:40:39;27.00;60.20
22645;DHT22;11489;50.834;6.752;2022-08-21T09:45:35;27.30;62.60
22645;DHT22;11489;50.834;6.752;2022-08-21T09:50:36;27.80;59.30
22645;DHT22;11489;50.834;6.752;2022-08-21T09:53:02;28.10;61.50
22645;DHT22;11489;50.834;6.752;2022-08-21T09:55:38;28.40;60.90
22645;DHT22;11489;50.834;6.752;2022-08-21T09:58:35;28.70;58.50
22645;DHT22;11489;50.834;6.752;2022-08-21T10:01:03;28.90;57.70
22645;DHT22;11489;50.834;6.752;2022-08-21T10:03:30;29.10;59.00
22645;DHT22;11489;50.834;6.752;2022-08-21T10:06:00;29.20;58.90
22645;DHT22;11489;50.834;6.752;2022-08-21T10:08:28;29.40;57.60
22645;DHT22;11489;50.834;6.752;2022-08-21T10:11:01;29.50;56.70
22645;DHT22;11489;50.834;6.752;2022-08-21T10:24:49;29.90;54.10
22645;DHT22;11489;50.834;6.752;2022-08-21T10:30:09;29.90;53.00
22645;DHT22;11489;50.834;6.752;2022-08-21T10:35:33;30.00;53.80
22645;DHT22;11489;50.834;6.752;2022-08-21T10:41:15;29.80;51.60
22645;DHT22;11489;50.834;6.752;2022-08-21T10:44:12;29.70;51.80
22645;DHT22;11489;50.834;6.752;2022-08-21T10:46:47;29.40;50.80
22645;DHT22;11489;50.834;6.752;2022-08-21T10:49:31;29.20;52.30
22645;DHT22;11489;50.834;6.752;2022-08-21T10:55:24;28.90;51.70
22645;DHT22;11489;50.834;6.752;2022-08-21T10:57:57;29.00;53.50
22645;DHT22;11489;50.834;6.752;2022-08-21T11:03:29;29.20;52.00
22645;DHT22;11489;50.834;6.752;2022-08-21T11:06:21;29.50;53.40
22645;DHT22;11489;50.834;6.752;2022-08-21T11:08:58;29.70;51.50
22645;DHT22;11489;50.834;6.752;2022-08-21T11:11:32;29.90;53.40
22645;DHT22;11489;50.834;6.752;2022-08-21T11:14:25;30.10;52.50
22645;DHT22;11489;50.834;6.752;2022-08-21T11:17:07;30.10;50.00
22645;DHT22;11489;50.834;6.752;2022-08-21T11:19:50;30.10;50.50
22645;DHT22;11489;50.834;6.752;2022-08-21T11:22:40;30.10;50.10
22645;DHT22;11489;50.834;6.752;2022-08-21T11:25:44;30.20;51.10
22645;DHT22;11489;50.834;6.752;2022-08-21T11:28:17;30.30;49.70
22645;DHT22;11489;50.834;6.752;2022-08-21T11:30:56;30.40;52.70
22645;DHT22;11489;50.834;6.752;2022-08-21T11:45:17;30.40;49.40
22645;DHT22;11489;50.834;6.752;2022-08-21T11:50:49;30.70;48.90
22645;DHT22;11489;50.834;6.752;2022-08-21T11:56:09;31.10;50.60
22645;DHT22;11489;50.834;6.752;2022-08-21T11:58:44;31.20;47.70
22645;DHT22;11489;50.834;6.752;2022-08-21T12:01:17;31.20;48.30
22645;DHT22;11489;50.834;6.752;2022-08-21T12:04:04;31.20;48.60
22645;DHT22;11489;50.834;6.752;2022-08-21T12:06:36;31.10;48.20
22645;DHT22;11489;50.834;6.752;2022-08-21T12:09:08;31.10;48.70
22645;DHT22;11489;50.834;6.752;2022-08-21T12:11:47;31.00;47.30
22645;DHT22;11489;50.834;6.752;2022-08-21T12:14:16;30.80;44.20
22645;DHT22;11489;50.834;6.752;2022-08-21T12:16:44;30.60;46.40
22645;DHT22;11489;50.834;6.752;2022-08-21T12:21:54;30.50;47.30
22645;DHT22;11489;50.834;6.752;2022-08-21T12:27:13;30.70;47.70
22645;DHT22;11489;50.834;6.752;2022-08-21T12:29:43;30.80;48.30
22645;DHT22;11489;50.834;6.752;2022-08-21T12:34:53;31.10;48.00
22645;DHT22;11489;50.834;6.752;2022-08-21T12:37:38;31.10;46.00
22645;DHT22;11489;50.834;6.752;2022-08-21T12:42:46;31.40;47.50
22645;DHT22;11489;50.834;6.752;2022-08-21T12:45:23;31.50;47.60
22645;DHT22;11489;50.834;6.752;2022-08-21T12:48:14;31.60;45.80
22645;DHT22;11489;50.834;6.752;2022-08-21T12:50:55;31.70;46.10
22645;DHT22;11489;50.834;6.752;2022-08-21T12:55:55;31.80;46.50
22645;DHT22;11489;50.834;6.752;2022-08-21T12:58:27;31.80;46.80
22645;DHT22;11489;50.834;6.752;2022-08-21T13:01:07;31.70;44.30
22645;DHT22;11489;50.834;6.752;2022-08-21T13:03:37;31.60;43.50
22645;DHT22;11489;50.834;6.752;2022-08-21T13:06:04;31.30;44.20
22645;DHT22;11489;50.834;6.752;2022-08-21T13:08:33;31.10;45.00
22645;DHT22;11489;50.834;6.752;2022-08-21T13:11:03;31.00;45.20
22645;DHT22;11489;50.834;6.752;2022-08-21T13:13:30;30.90;45.70
22645;DHT22;11489;50.834;6.752;2022-08-21T13:16:04;30.90;46.10
22645;DHT22;11489;50.834;6.752;2022-08-21T13:18:34;31.00;45.10
22645;DHT22;11489;50.834;6.752;2022-08-21T13:21:14;31.00;45.60
22645;DHT22;11489;50.834;6.752;2022-08-21T13:23:41;31.00;44.30
22645;DHT22;11489;50.834;6.752;2022-08-21T13:29:07;30.90;44.90
22645;DHT22;11489;50.834;6.752;2022-08-21T13:31:35;30.70;43.80
22645;DHT22;11489;50.834;6.752;2022-08-21T13:34:01;30.40;44.80
22645;DHT22;11489;50.834;6.752;2022-08-21T13:36:31;30.30;45.20
22645;DHT22;11489;50.834;6.752;2022-08-21T13:38:57;30.20;44.70
22645;DHT22;11489;50.834;6.752;2022-08-21T13:41:30;30.10;44.70
22645;DHT22;11489;50.834;6.752;2022-08-21T13:44:22;30.10;43.60
22645;DHT22;11489;50.834;6.752;2022-08-21T13:46:52;30.00;44.30
22645;DHT22;11489;50.834;6.752;2022-08-21T13:49:22;30.00;45.70
22645;DHT22;11489;50.834;6.752;2022-08-21T13:51:48;30.00;44.00
22645;DHT22;11489;50.834;6.752;2022-08-21T13:56:51;29.80;42.80
22645;DHT22;11489;50.834;6.752;2022-08-21T13:59:26;29.70;44.10
22645;DHT22;11489;50.834;6.752;2022-08-21T14:01:55;29.60;44.40
22645;DHT22;11489;50.834;6.752;2022-08-21T14:04:34;29.50;44.20
22645;DHT22;11489;50.834;6.752;2022-08-21T14:07:02;29.30;43.30
22645;DHT22;11489;50.834;6.752;2022-08-21T14:09:43;29.30;44.90
22645;DHT22;11489;50.834;6.752;2022-08-21T14:12:24;29.30;44.30
22645;DHT22;11489;50.834;6.752;2022-08-21T14:14:51;29.30;42.60
22645;DHT22;11489;50.834;6.752;2022-08-21T14:17:32;29.20;43.80
22645;DHT22;11489;50.834;6.752;2022-08-21T14:19:58;29.00;42.40
22645;DHT22;11489;50.834;6.752;2022-08-21T14:22:47;28.90;44.00
22645;DHT22;11489;50.834;6.752;2022-08-21T14:27:53;28.50;43.50
22645;DHT22;11489;50.834;6.752;2022-08-21T14:30:30;28.30;43.60
22645;DHT22;11489;50.834;6.752;2022-08-21T14:32:57;28.20;44.40
22645;DHT22;11489;50.834;6.752;2022-08-21T14:35:24;28.10;44.90
22645;DHT22;11489;50.834;6.752;2022-08-21T14:37:50;28.00;44.70
22645;DHT22;11489;50.834;6.752;2022-08-21T14:40:18;27.90;44.80
22645;DHT22;11489;50.834;6.752;2022-08-21T14:42:45;27.80;45.00
22645;DHT22;11489;50.834;6.752;2022-08-21T14:45:15;27.80;45.30
22645;DHT22;11489;50.834;6.752;2022-08-21T14:47:41;27.80;44.80
22645;DHT22;11489;50.834;6.752;2022-08-21T14:50:09;27.80;44.50
22645;DHT22;11489;50.834;6.752;2022-08-21T14:52:36;27.70;43.60
22645;DHT22;11489;50.834;6.752;2022-08-21T14:55:03;27.50;43.90
22645;DHT22;11489;50.834;6.752;2022-08-21T14:57:30;27.40;44.10
22645;DHT22;11489;50.834;6.752;2022-08-21T14:59:57;27.30;44.50
22645;DHT22;11489;50.834;6.752;2022-08-21T15:02:22;27.20;44.90
22645;DHT22;11489;50.834;6.752;2022-08-21T15:04:48;27.10;44.90
22645;DHT22;11489;50.834;6.752;2022-08-21T15:07:14;27.00;45.00
22645;DHT22;11489;50.834;6.752;2022-08-21T15:09:39;26.90;44.70
22645;DHT22;11489;50.834;6.752;2022-08-21T15:12:06;26.80;44.60
22645;DHT22;11489;50.834;6.752;2022-08-21T15:14:34;26.80;44.90
22645;DHT22;11489;50.834;6.752;2022-08-21T15:17:01;26.80;45.20
22645;DHT22;11489;50.834;6.752;2022-08-21T15:19:29;26.80;45.50
22645;DHT22;11489;50.834;6.752;2022-08-21T15:21:55;26.80;44.50
22645;DHT22;11489;50.834;6.752;2022-08-21T15:24:21;26.80;44.80
22645;DHT22;11489;50.834;6.752;2022-08-21T15:26:47;26.80;44.40
22645;DHT22;11489;50.834;6.752;2022-08-21T15:29:13;26.70;45.00
22645;DHT22;11489;50.834;6.752;2022-08-21T15:31:57;26.70;45.50
22645;DHT22;11489;50.834;6.752;2022-08-21T15:34:24;26.80;44.90
22645;DHT22;11489;50.834;6.752;2022-08-21T15:36:50;26.80;45.70
22645;DHT22;11489;50.834;6.752;2022-08-21T15:39:16;26.90;44.90
22645;DHT22;11489;50.834;6.752;2022-08-21T15:41:42;26.90;45.30
22645;DHT22;11489;50.834;6.752;2022-08-21T15:44:09;27.00;45.70
22645;DHT22;11489;50.834;6.752;2022-08-21T15:46:38;27.00;45.60
22645;DHT22;11489;50.834;6.752;2022-08-21T15:49:04;27.10;45.60
22645;DHT22;11489;50.834;6.752;2022-08-21T15:51:30;27.20;45.70
22645;DHT22;11489;50.834;6.752;2022-08-21T15:53:55;27.20;45.30
22645;DHT22;11489;50.834;6.752;2022-08-21T15:56:24;27.20;45.20
22645;DHT22;11489;50.834;6.752;2022-08-21T15:59:00;27.20;45.20
22645;DHT22;11489;50.834;6.752;2022-08-21T16:01:27;27.20;44.70
22645;DHT22;11489;50.834;6.752;2022-08-21T16:03:54;27.30;44.40
22645;DHT22;11489;50.834;6.752;2022-08-21T16:06:20;27.30;43.90
22645;DHT22;11489;50.834;6.752;2022-08-21T16:08:46;27.30;44.50
22645;DHT22;11489;50.834;6.752;2022-08-21T16:11:13;27.40;44.90
22645;DHT22;11489;50.834;6.752;2022-08-21T16:13:42;27.50;44.70
22645;DHT22;11489;50.834;6.752;2022-08-21T16:16:11;27.60;44.60
22645;DHT22;11489;50.834;6.752;2022-08-21T16:18:38;27.70;44.30
22645;DHT22;11489;50.834;6.752;2022-08-21T16:21:05;27.70;44.00
22645;DHT22;11489;50.834;6.752;2022-08-21T16:23:30;27.70;43.30
22645;DHT22;11489;50.834;6.752;2022-08-21T16:26:00;27.60;43.40
22645;DHT22;11489;50.834;6.752;2022-08-21T16:28:26;27.50;43.50
22645;DHT22;11489;50.834;6.752;2022-08-21T16:30:51;27.30;42.70
22645;DHT22;11489;50.834;6.752;2022-08-21T16:33:27;27.20;42.80
22645;DHT22;11489;50.834;6.752;2022-08-21T16:35:54;27.00;42.50
22645;DHT22;11489;50.834;6.752;2022-08-21T16:38:20;26.80;42.90
22645;DHT22;11489;50.834;6.752;2022-08-21T16:40:46;26.70;43.20
22645;DHT22;11489;50.834;6.752;2022-08-21T16:43:11;26.50;43.20
22645;DHT22;11489;50.834;6.752;2022-08-21T16:45:38;26.40;43.50
22645;DHT22;11489;50.834;6.752;2022-08-21T16:48:06;26.20;43.50
22645;DHT22;11489;50.834;6.752;2022-08-21T16:50:35;26.20;43.90
22645;DHT22;11489;50.834;6.752;2022-08-21T16:53:01;26.10;43.90
22645;DHT22;11489;50.834;6.752;2022-08-21T16:55:27;26.10;44.00
22645;DHT22;11489;50.834;6.752;2022-08-21T16:57:54;26.00;44.00
22645;DHT22;11489;50.834;6.752;2022-08-21T17:00:20;26.00;44.20
22645;DHT22;11489;50.834;6.752;2022-08-21T17:02:48;25.90;44.20
22645;DHT22;11489;50.834;6.752;2022-08-21T17:05:15;25.90;44.20